sensor_id;sensor_type;location;lat;lon;timestamp;P1;P2;P0
62631;PMS5003;48703;51.248;-0.546;2022-10-18T00:01:10;5.33;4.20;
62631;PMS5003;48703;51.248;-0.546;2022-10-18T00:04:12;6.01;4.89;
62631;PMS5003;48703;51.248;-0.546;2022-10-18T00:07:13;5.76;4.80;
62631;PMS5003;48703;51.248;-0.546;2022-10-18T00:10:15;5.49;4.67;
62631;PMS5003;48703;51.248;-0.546;2022-10-18T00:13:17;4.04;3.73;
62631;PMS5003;48703;51.248;-0.546;2022-10-18T00:16:18;4.57;4.17;
62631;PMS5003;48703;51.248;-0.546;2022-10-18T00:19:20;6.57;4.50;
62631;PMS5003;48703;51.248;-0.546;2022-10-18T00:22:22;3.56;3.56;
62631;PMS5003;48703;51.248;-0.546;2022-10-18T00:25:23;4.79;4.31;
62631;PMS5003;48703;51.248;-0.546;2022-10-18T00:28:25;4.49;3.79;
62631;PMS5003;48703;51.248;-0.546;2022-10-18T00:31:28;4.96;4.96;
62631;PMS5003;48703;51.248;-0.546;2022-10-18T00:34:28;5.36;4.34;
62631;PMS5003;48703;51.248;-0.546;2022-10-18T00:37:30;6.01;4.83;
62631;PMS5003;48703;51.248;-0.546;2022-10-18T00:40:31;5.93;5.20;
62631;PMS5003;48703;51.248;-0.546;2022-10-18T00:43:49;4.51;4.33;
62631;PMS5003;48703;51.248;-0.546;2022-10-18T00:46:35;4.67;3.37;
62631;PMS5003;48703;51.248;-0.546;2022-10-18T00:49:38;5.40;3.89;
62631;PMS5003;48703;51.248;-0.546;2022-10-18T00:52:39;3.89;3.39;
62631;PMS5003;48703;51.248;-0.546;2022-10-18T00:55:40;4.26;3.36;
62631;PMS5003;48703;51.248;-0.546;2022-10-18T00:58:41;3.27;3.27;
62631;PMS5003;48703;51.248;-0.546;2022-10-18T01:01:43;3.33;3.33;
62631;PMS5003;48703;51.248;-0.546;2022-10-18T01:04:45;5.74;3.80;
62631;PMS5003;48703;51.248;-0.546;2022-10-18T01:07:52;5.67;4.83;
62631;PMS5003;48703;51.248;-0.546;2022-10-18T01:10:50;7.43;5.46;
62631;PMS5003;48703;51.248;-0.546;2022-10-18T01:13:54;7.74;7.01;
62631;PMS5003;48703;51.248;-0.546;2022-10-18T01:16:53;7.27;6.73;
62631;PMS5003;48703;51.248;-0.546;2022-10-18T01:22:55;7.24;6.00;
62631;PMS5003;48703;51.248;-0.546;2022-10-18T01:26:00;7.97;7.44;
62631;PMS5003;48703;51.248;-0.546;2022-10-18T01:29:00;8.73;7.40;
62631;PMS5003;48703;51.248;-0.546;2022-10-18T01:32:00;7.13;5.69;
62631;PMS5003;48703;51.248;-0.546;2022-10-18T01:35:02;5.97;5.97;
62631;PMS5003;48703;51.248;-0.546;2022-10-18T01:38:03;7.76;7.11;
62631;PMS5003;48703;51.248;-0.546;2022-10-18T01:41:04;7.17;6.46;
62631;PMS5003;48703;51.248;-0.546;2022-10-18T01:44:06;5.93;5.13;
62631;PMS5003;48703;51.248;-0.546;2022-10-18T01:47:08;6.09;4.83;
62631;PMS5003;48703;51.248;-0.546;2022-10-18T01:50:09;5.67;5.10;
62631;PMS5003;48703;51.248;-0.546;2022-10-18T01:53:27;6.10;5.20;
62631;PMS5003;48703;51.248;-0.546;2022-10-18T01:56:15;6.00;5.49;
62631;PMS5003;48703;51.248;-0.546;2022-10-18T01:59:18;7.53;5.93;
62631;PMS5003;48703;51.248;-0.546;2022-10-18T02:02:18;8.21;7.16;
62631;PMS5003;48703;51.248;-0.546;2022-10-18T02:05:19;6.53;5.11;
62631;PMS5003;48703;51.248;-0.546;2022-10-18T02:08:21;7.94;6.97;
62631;PMS5003;48703;51.248;-0.546;2022-10-18T02:11:20;4.33;4.33;
62631;PMS5003;48703;51.248;-0.546;2022-10-18T02:14:22;5.14;5.01;
62631;PMS5003;48703;51.248;-0.546;2022-10-18T02:17:24;4.77;4.51;
62631;PMS5003;48703;51.248;-0.546;2022-10-18T02:20:25;5.46;5.16;
62631;PMS5003;48703;51.248;-0.546;2022-10-18T02:23:26;4.89;4.31;
62631;PMS5003;48703;51.248;-0.546;2022-10-18T02:26:28;6.29;5.76;
62631;PMS5003;48703;51.248;-0.546;2022-10-18T02:29:30;4.57;3.51;
62631;PMS5003;48703;51.248;-0.546;2022-10-18T02:32:33;4.34;3.47;
62631;PMS5003;48703;51.248;-0.546;2022-10-18T02:35:34;4.10;3.94;
62631;PMS5003;48703;51.248;-0.546;2022-10-18T02:38:34;3.70;3.20;
62631;PMS5003;48703;51.248;-0.546;2022-10-18T02:41:36;4.97;3.77;
62631;PMS5003;48703;51.248;-0.546;2022-10-18T02:44:38;5.07;4.30;
62631;PMS5003;48703;51.248;-0.546;2022-10-18T02:47:40;4.56;2.94;
62631;PMS5003;48703;51.248;-0.546;2022-10-18T02:50:41;5.07;4.04;
62631;PMS5003;48703;51.248;-0.546;2022-10-18T02:53:43;4.54;3.34;
62631;PMS5003;48703;51.248;-0.546;2022-10-18T02:56:45;3.60;3.51;
62631;PMS5003;48703;51.248;-0.546;2022-10-18T02:59:46;5.70;4.59;
62631;PMS5003;48703;51.248;-0.546;2022-10-18T03:02:48;4.37;3.84;
62631;PMS5003;48703;51.248;-0.546;2022-10-18T03:05:50;4.41;3.81;
62631;PMS5003;48703;51.248;-0.546;2022-10-18T03:08:52;4.39;3.66;
62631;PMS5003;48703;51.248;-0.546;2022-10-18T03:11:53;3.54;3.00;
62631;PMS5003;48703;51.248;-0.546;2022-10-18T03:14:55;3.91;3.91;
62631;PMS5003;48703;51.248;-0.546;2022-10-18T03:17:57;3.56;3.51;
62631;PMS5003;48703;51.248;-0.546;2022-10-18T03:21:02;4.01;2.94;
62631;PMS5003;48703;51.248;-0.546;2022-10-18T03:24:00;2.91;2.91;
62631;PMS5003;48703;51.248;-0.546;2022-10-18T03:27:01;4.84;4.49;
62631;PMS5003;48703;51.248;-0.546;2022-10-18T03:30:03;4.69;3.83;
62631;PMS5003;48703;51.248;-0.546;2022-10-18T03:33:05;5.77;5.49;
62631;PMS5003;48703;51.248;-0.546;2022-10-18T03:36:06;4.54;3.84;
62631;PMS5003;48703;51.248;-0.546;2022-10-18T03:39:08;3.06;3.06;
62631;PMS5003;48703;51.248;-0.546;2022-10-18T03:42:09;3.46;3.03;
62631;PMS5003;48703;51.248;-0.546;2022-10-18T03:45:11;5.37;4.27;
62631;PMS5003;48703;51.248;-0.546;2022-10-18T03:48:13;4.93;3.21;
62631;PMS5003;48703;51.248;-0.546;2022-10-18T03:51:14;5.10;3.90;
62631;PMS5003;48703;51.248;-0.546;2022-10-18T03:54:16;2.66;2.63;
62631;PMS5003;48703;51.248;-0.546;2022-10-18T03:57:18;2.59;2.59;
62631;PMS5003;48703;51.248;-0.546;2022-10-18T04:00:19;4.00;3.29;
62631;PMS5003;48703;51.248;-0.546;2022-10-18T04:03:21;3.49;3.31;
62631;PMS5003;48703;51.248;-0.546;2022-10-18T04:06:23;3.39;2.91;
62631;PMS5003;48703;51.248;-0.546;2022-10-18T04:09:25;4.01;4.00;
62631;PMS5003;48703;51.248;-0.546;2022-10-18T04:12:26;4.63;3.80;
62631;PMS5003;48703;51.248;-0.546;2022-10-18T04:15:28;4.66;3.33;
62631;PMS5003;48703;51.248;-0.546;2022-10-18T04:18:29;3.14;3.14;
62631;PMS5003;48703;51.248;-0.546;2022-10-18T04:21:31;3.21;3.21;
62631;PMS5003;48703;51.248;-0.546;2022-10-18T04:24:33;4.26;3.63;
62631;PMS5003;48703;51.248;-0.546;2022-10-18T04:27:35;4.03;3.29;
62631;PMS5003;48703;51.248;-0.546;2022-10-18T04:30:36;4.27;4.09;
62631;PMS5003;48703;51.248;-0.546;2022-10-18T04:33:38;3.77;3.30;
62631;PMS5003;48703;51.248;-0.546;2022-10-18T04:36:39;3.99;3.99;
62631;PMS5003;48703;51.248;-0.546;2022-10-18T04:39:41;4.99;3.94;
62631;PMS5003;48703;51.248;-0.546;2022-10-18T04:42:42;5.91;4.26;
62631;PMS5003;48703;51.248;-0.546;2022-10-18T04:45:44;3.37;3.37;
62631;PMS5003;48703;51.248;-0.546;2022-10-18T04:48:46;5.23;3.51;
62631;PMS5003;48703;51.248;-0.546;2022-10-18T04:51:47;3.93;3.20;
62631;PMS5003;48703;51.248;-0.546;2022-10-18T04:54:49;5.30;4.93;
62631;PMS5003;48703;51.248;-0.546;2022-10-18T04:57:51;5.59;4.55;
62631;PMS5003;48703;51.248;-0.546;2022-10-18T05:00:52;4.84;3.96;
62631;PMS5003;48703;51.248;-0.546;2022-10-18T05:03:54;4.77;4.13;
62631;PMS5003;48703;51.248;-0.546;2022-10-18T05:06:56;5.36;4.83;
62631;PMS5003;48703;51.248;-0.546;2022-10-18T05:09:58;5.80;5.16;
62631;PMS5003;48703;51.248;-0.546;2022-10-18T05:12:59;6.09;4.33;
62631;PMS5003;48703;51.248;-0.546;2022-10-18T05:16:01;6.26;5.19;
62631;PMS5003;48703;51.248;-0.546;2022-10-18T05:19:03;6.67;5.59;
62631;PMS5003;48703;51.248;-0.546;2022-10-18T05:22:04;4.61;4.49;
62631;PMS5003;48703;51.248;-0.546;2022-10-18T05:25:06;3.93;3.34;
62631;PMS5003;48703;51.248;-0.546;2022-10-18T05:28:07;6.51;5.96;
62631;PMS5003;48703;51.248;-0.546;2022-10-18T05:31:09;6.89;6.37;
62631;PMS5003;48703;51.248;-0.546;2022-10-18T05:34:10;8.31;7.11;
62631;PMS5003;48703;51.248;-0.546;2022-10-18T05:37:12;7.31;6.21;
62631;PMS5003;48703;51.248;-0.546;2022-10-18T05:40:14;7.66;6.81;
62631;PMS5003;48703;51.248;-0.546;2022-10-18T05:43:15;7.35;6.28;
62631;PMS5003;48703;51.248;-0.546;2022-10-18T05:46:17;6.63;5.96;
62631;PMS5003;48703;51.248;-0.546;2022-10-18T05:49:18;6.80;6.43;
62631;PMS5003;48703;51.248;-0.546;2022-10-18T05:52:20;8.04;6.93;
62631;PMS5003;48703;51.248;-0.546;2022-10-18T05:55:22;8.13;7.39;
62631;PMS5003;48703;51.248;-0.546;2022-10-18T05:58:24;8.23;6.99;
62631;PMS5003;48703;51.248;-0.546;2022-10-18T06:01:25;9.60;8.50;
62631;PMS5003;48703;51.248;-0.546;2022-10-18T06:04:27;9.66;8.19;
62631;PMS5003;48703;51.248;-0.546;2022-10-18T06:07:29;8.44;6.84;
62631;PMS5003;48703;51.248;-0.546;2022-10-18T06:10:31;9.21;7.80;
62631;PMS5003;48703;51.248;-0.546;2022-10-18T06:13:32;8.74;7.83;
62631;PMS5003;48703;51.248;-0.546;2022-10-18T06:16:34;8.24;6.60;
62631;PMS5003;48703;51.248;-0.546;2022-10-18T06:19:36;8.36;7.41;
62631;PMS5003;48703;51.248;-0.546;2022-10-18T06:22:37;8.33;7.77;
62631;PMS5003;48703;51.248;-0.546;2022-10-18T06:25:39;10.24;8.31;
62631;PMS5003;48703;51.248;-0.546;2022-10-18T06:28:41;8.54;6.77;
62631;PMS5003;48703;51.248;-0.546;2022-10-18T06:31:43;8.63;7.13;
62631;PMS5003;48703;51.248;-0.546;2022-10-18T06:34:45;7.50;6.30;
62631;PMS5003;48703;51.248;-0.546;2022-10-18T06:37:46;8.76;8.76;
62631;PMS5003;48703;51.248;-0.546;2022-10-18T06:40:48;10.47;9.77;
62631;PMS5003;48703;51.248;-0.546;2022-10-18T06:43:49;6.90;6.60;
62631;PMS5003;48703;51.248;-0.546;2022-10-18T06:46:51;8.70;7.66;
62631;PMS5003;48703;51.248;-0.546;2022-10-18T06:49:53;9.30;8.86;
62631;PMS5003;48703;51.248;-0.546;2022-10-18T06:52:54;9.79;6.83;
62631;PMS5003;48703;51.248;-0.546;2022-10-18T06:55:57;7.66;6.39;
62631;PMS5003;48703;51.248;-0.546;2022-10-18T06:58:58;8.53;6.34;
62631;PMS5003;48703;51.248;-0.546;2022-10-18T07:02:00;7.16;6.33;
62631;PMS5003;48703;51.248;-0.546;2022-10-18T07:05:01;8.07;6.91;
62631;PMS5003;48703;51.248;-0.546;2022-10-18T07:08:03;5.67;5.26;
62631;PMS5003;48703;51.248;-0.546;2022-10-18T07:11:06;7.30;7.13;
62631;PMS5003;48703;51.248;-0.546;2022-10-18T07:14:07;6.29;5.71;
62631;PMS5003;48703;51.248;-0.546;2022-10-18T07:17:08;8.33;6.86;
62631;PMS5003;48703;51.248;-0.546;2022-10-18T07:20:10;7.86;6.66;
62631;PMS5003;48703;51.248;-0.546;2022-10-18T07:23:12;6.43;5.87;
62631;PMS5003;48703;51.248;-0.546;2022-10-18T07:26:14;7.46;7.39;
62631;PMS5003;48703;51.248;-0.546;2022-10-18T07:29:14;5.33;4.77;
62631;PMS5003;48703;51.248;-0.546;2022-10-18T07:32:16;6.67;6.11;
62631;PMS5003;48703;51.248;-0.546;2022-10-18T07:35:18;6.27;5.59;
62631;PMS5003;48703;51.248;-0.546;2022-10-18T07:38:20;7.13;5.37;
62631;PMS5003;48703;51.248;-0.546;2022-10-18T07:41:21;5.01;4.46;
62631;PMS5003;48703;51.248;-0.546;2022-10-18T07:44:23;6.13;5.26;
62631;PMS5003;48703;51.248;-0.546;2022-10-18T07:47:25;6.54;5.71;
62631;PMS5003;48703;51.248;-0.546;2022-10-18T07:50:27;8.81;7.23;
62631;PMS5003;48703;51.248;-0.546;2022-10-18T07:53:28;6.26;5.61;
62631;PMS5003;48703;51.248;-0.546;2022-10-18T07:56:30;6.80;5.57;
62631;PMS5003;48703;51.248;-0.546;2022-10-18T07:59:31;6.93;6.56;
62631;PMS5003;48703;51.248;-0.546;2022-10-18T08:02:33;6.24;5.41;
62631;PMS5003;48703;51.248;-0.546;2022-10-18T08:05:35;5.01;5.01;
62631;PMS5003;48703;51.248;-0.546;2022-10-18T08:08:37;6.60;4.84;
62631;PMS5003;48703;51.248;-0.546;2022-10-18T08:11:39;7.59;6.77;
62631;PMS5003;48703;51.248;-0.546;2022-10-18T08:14:40;6.73;6.33;
62631;PMS5003;48703;51.248;-0.546;2022-10-18T08:17:42;7.20;6.13;
62631;PMS5003;48703;51.248;-0.546;2022-10-18T08:20:44;5.51;5.00;
62631;PMS5003;48703;51.248;-0.546;2022-10-18T08:23:45;6.96;6.00;
62631;PMS5003;48703;51.248;-0.546;2022-10-18T08:26:47;5.79;5.30;
62631;PMS5003;48703;51.248;-0.546;2022-10-18T08:29:49;7.61;7.01;
62631;PMS5003;48703;51.248;-0.546;2022-10-18T08:32:50;8.01;7.41;
62631;PMS5003;48703;51.248;-0.546;2022-10-18T08:35:53;7.99;7.69;
62631;PMS5003;48703;51.248;-0.546;2022-10-18T08:38:54;7.29;6.94;
62631;PMS5003;48703;51.248;-0.546;2022-10-18T08:42:00;7.29;6.69;
62631;PMS5003;48703;51.248;-0.546;2022-10-18T08:44:57;7.24;6.67;
62631;PMS5003;48703;51.248;-0.546;2022-10-18T08:47:59;7.49;7.49;
62631;PMS5003;48703;51.248;-0.546;2022-10-18T08:51:02;9.31;7.16;
62631;PMS5003;48703;51.248;-0.546;2022-10-18T08:54:03;9.56;8.73;
62631;PMS5003;48703;51.248;-0.546;2022-10-18T08:57:08;8.87;8.23;
62631;PMS5003;48703;51.248;-0.546;2022-10-18T09:00:07;11.14;9.86;
62631;PMS5003;48703;51.248;-0.546;2022-10-18T09:03:12;12.60;12.37;
62631;PMS5003;48703;51.248;-0.546;2022-10-18T09:06:10;9.20;9.20;
62631;PMS5003;48703;51.248;-0.546;2022-10-18T09:09:15;10.70;9.97;
62631;PMS5003;48703;51.248;-0.546;2022-10-18T09:12:19;11.89;9.93;
62631;PMS5003;48703;51.248;-0.546;2022-10-18T09:15:15;10.37;8.41;
62631;PMS5003;48703;51.248;-0.546;2022-10-18T09:18:20;7.90;7.86;
62631;PMS5003;48703;51.248;-0.546;2022-10-18T09:21:18;7.27;6.89;
62631;PMS5003;48703;51.248;-0.546;2022-10-18T09:24:21;8.71;8.09;
62631;PMS5003;48703;51.248;-0.546;2022-10-18T09:27:21;7.24;6.90;
62631;PMS5003;48703;51.248;-0.546;2022-10-18T09:30:26;8.97;7.43;
62631;PMS5003;48703;51.248;-0.546;2022-10-18T09:33:27;11.80;9.81;
62631;PMS5003;48703;51.248;-0.546;2022-10-18T09:36:26;10.07;10.07;
62631;PMS5003;48703;51.248;-0.546;2022-10-18T09:39:28;10.20;10.20;
62631;PMS5003;48703;51.248;-0.546;2022-10-18T09:42:29;11.64;11.31;
62631;PMS5003;48703;51.248;-0.546;2022-10-18T09:45:30;13.01;11.53;
62631;PMS5003;48703;51.248;-0.546;2022-10-18T09:48:33;14.72;13.83;
62631;PMS5003;48703;51.248;-0.546;2022-10-18T09:51:33;14.80;13.16;
62631;PMS5003;48703;51.248;-0.546;2022-10-18T09:54:35;15.29;14.99;
62631;PMS5003;48703;51.248;-0.546;2022-10-18T09:57:36;14.77;13.59;
62631;PMS5003;48703;51.248;-0.546;2022-10-18T10:00:37;15.13;13.83;
62631;PMS5003;48703;51.248;-0.546;2022-10-18T10:03:38;16.06;15.16;
62631;PMS5003;48703;51.248;-0.546;2022-10-18T10:06:40;15.30;15.10;
62631;PMS5003;48703;51.248;-0.546;2022-10-18T10:09:44;16.24;14.56;
62631;PMS5003;48703;51.248;-0.546;2022-10-18T10:12:46;16.50;15.36;
62631;PMS5003;48703;51.248;-0.546;2022-10-18T10:15:47;15.99;15.55;
62631;PMS5003;48703;51.248;-0.546;2022-10-18T10:18:47;17.57;16.27;
62631;PMS5003;48703;51.248;-0.546;2022-10-18T10:21:49;16.57;15.77;
62631;PMS5003;48703;51.248;-0.546;2022-10-18T10:24:50;21.04;18.83;
62631;PMS5003;48703;51.248;-0.546;2022-10-18T10:27:51;23.69;22.10;
62631;PMS5003;48703;51.248;-0.546;2022-10-18T10:30:52;23.75;21.42;
62631;PMS5003;48703;51.248;-0.546;2022-10-18T10:33:57;21.80;19.63;
62631;PMS5003;48703;51.248;-0.546;2022-10-18T10:36:55;29.55;26.35;
62631;PMS5003;48703;51.248;-0.546;2022-10-18T10:40:04;28.10;26.20;
62631;PMS5003;48703;51.248;-0.546;2022-10-18T10:42:59;29.59;27.15;
62631;PMS5003;48703;51.248;-0.546;2022-10-18T10:46:00;33.81;29.73;
62631;PMS5003;48703;51.248;-0.546;2022-10-18T10:49:00;28.07;26.10;
62631;PMS5003;48703;51.248;-0.546;2022-10-18T10:52:02;27.46;25.16;
62631;PMS5003;48703;51.248;-0.546;2022-10-18T10:55:04;30.51;26.96;
62631;PMS5003;48703;51.248;-0.546;2022-10-18T10:58:13;26.67;24.64;
62631;PMS5003;48703;51.248;-0.546;2022-10-18T11:01:25;22.87;21.39;
62631;PMS5003;48703;51.248;-0.546;2022-10-18T11:04:25;23.99;21.94;
62631;PMS5003;48703;51.248;-0.546;2022-10-18T11:07:11;24.66;23.81;
62631;PMS5003;48703;51.248;-0.546;2022-10-18T11:10:12;20.42;19.68;
62631;PMS5003;48703;51.248;-0.546;2022-10-18T11:13:17;20.13;19.57;
62631;PMS5003;48703;51.248;-0.546;2022-10-18T11:16:15;21.57;20.31;
62631;PMS5003;48703;51.248;-0.546;2022-10-18T11:19:27;19.71;18.64;
62631;PMS5003;48703;51.248;-0.546;2022-10-18T11:22:17;22.10;19.93;
62631;PMS5003;48703;51.248;-0.546;2022-10-18T11:25:18;20.21;19.31;
62631;PMS5003;48703;51.248;-0.546;2022-10-18T11:28:23;17.29;16.64;
62631;PMS5003;48703;51.248;-0.546;2022-10-18T11:31:22;17.57;16.53;
62631;PMS5003;48703;51.248;-0.546;2022-10-18T11:34:27;19.00;16.26;
62631;PMS5003;48703;51.248;-0.546;2022-10-18T11:37:28;20.54;19.54;
62631;PMS5003;48703;51.248;-0.546;2022-10-18T11:40:28;17.73;16.20;
62631;PMS5003;48703;51.248;-0.546;2022-10-18T11:43:29;17.38;16.67;
62631;PMS5003;48703;51.248;-0.546;2022-10-18T11:46:32;19.61;18.09;
62631;PMS5003;48703;51.248;-0.546;2022-10-18T11:49:34;19.31;18.19;
62631;PMS5003;48703;51.248;-0.546;2022-10-18T11:52:34;17.63;16.77;
62631;PMS5003;48703;51.248;-0.546;2022-10-18T11:55:36;18.45;16.41;
62631;PMS5003;48703;51.248;-0.546;2022-10-18T11:58:38;21.61;19.59;
62631;PMS5003;48703;51.248;-0.546;2022-10-18T12:01:36;19.39;17.54;
62631;PMS5003;48703;51.248;-0.546;2022-10-18T12:04:39;17.56;14.91;
62631;PMS5003;48703;51.248;-0.546;2022-10-18T12:07:40;17.24;14.61;
62631;PMS5003;48703;51.248;-0.546;2022-10-18T12:10:41;15.56;14.44;
62631;PMS5003;48703;51.248;-0.546;2022-10-18T12:13:43;16.30;13.76;
62631;PMS5003;48703;51.248;-0.546;2022-10-18T12:16:43;16.11;15.23;
62631;PMS5003;48703;51.248;-0.546;2022-10-18T12:19:45;14.47;12.87;
62631;PMS5003;48703;51.248;-0.546;2022-10-18T12:22:46;15.76;13.00;
62631;PMS5003;48703;51.248;-0.546;2022-10-18T12:25:48;13.64;11.93;
62631;PMS5003;48703;51.248;-0.546;2022-10-18T12:28:53;11.51;9.99;
62631;PMS5003;48703;51.248;-0.546;2022-10-18T12:31:51;9.83;8.46;
62631;PMS5003;48703;51.248;-0.546;2022-10-18T12:34:53;10.89;10.23;
62631;PMS5003;48703;51.248;-0.546;2022-10-18T12:37:56;11.53;10.27;
62631;PMS5003;48703;51.248;-0.546;2022-10-18T12:40:55;9.21;7.51;
62631;PMS5003;48703;51.248;-0.546;2022-10-18T12:43:58;5.13;4.70;
62631;PMS5003;48703;51.248;-0.546;2022-10-18T12:46:59;2.93;2.31;
62631;PMS5003;48703;51.248;-0.546;2022-10-18T12:50:00;3.49;2.11;
62631;PMS5003;48703;51.248;-0.546;2022-10-18T12:53:03;2.67;2.11;
62631;PMS5003;48703;51.248;-0.546;2022-10-18T12:56:36;3.23;2.44;
62631;PMS5003;48703;51.248;-0.546;2022-10-18T12:59:39;2.00;1.70;
62631;PMS5003;48703;51.248;-0.546;2022-10-18T13:02:08;2.61;2.61;
62631;PMS5003;48703;51.248;-0.546;2022-10-18T13:06:12;2.14;2.14;
62631;PMS5003;48703;51.248;-0.546;2022-10-18T13:08:27;3.61;3.43;
62631;PMS5003;48703;51.248;-0.546;2022-10-18T13:11:42;2.73;2.26;
62631;PMS5003;48703;51.248;-0.546;2022-10-18T13:14:31;2.66;2.40;
62631;PMS5003;48703;51.248;-0.546;2022-10-18T13:17:18;2.70;2.70;
62631;PMS5003;48703;51.248;-0.546;2022-10-18T13:20:18;2.96;2.66;
62631;PMS5003;48703;51.248;-0.546;2022-10-18T13:23:24;3.01;1.73;
62631;PMS5003;48703;51.248;-0.546;2022-10-18T13:26:20;3.87;2.96;
62631;PMS5003;48703;51.248;-0.546;2022-10-18T13:29:24;1.97;1.97;
62631;PMS5003;48703;51.248;-0.546;2022-10-18T13:32:22;3.00;2.37;
62631;PMS5003;48703;51.248;-0.546;2022-10-18T13:35:40;2.86;2.47;
62631;PMS5003;48703;51.248;-0.546;2022-10-18T13:39:28;3.54;3.26;
62631;PMS5003;48703;51.248;-0.546;2022-10-18T13:41:25;3.66;2.76;
62631;PMS5003;48703;51.248;-0.546;2022-10-18T13:44:27;2.50;2.43;
62631;PMS5003;48703;51.248;-0.546;2022-10-18T13:47:32;3.60;3.14;
62631;PMS5003;48703;51.248;-0.546;2022-10-18T13:50:30;2.97;2.53;
62631;PMS5003;48703;51.248;-0.546;2022-10-18T13:53:37;2.66;2.40;
62631;PMS5003;48703;51.248;-0.546;2022-10-18T13:56:36;1.44;1.44;
62631;PMS5003;48703;51.248;-0.546;2022-10-18T13:59:41;4.27;2.73;
62631;PMS5003;48703;51.248;-0.546;2022-10-18T14:02:39;2.66;2.66;
62631;PMS5003;48703;51.248;-0.546;2022-10-18T14:05:42;3.46;3.11;
62631;PMS5003;48703;51.248;-0.546;2022-10-18T14:08:39;3.10;2.80;
62631;PMS5003;48703;51.248;-0.546;2022-10-18T14:11:40;2.73;2.34;
62631;PMS5003;48703;51.248;-0.546;2022-10-18T14:14:41;3.16;2.99;
62631;PMS5003;48703;51.248;-0.546;2022-10-18T14:17:43;3.07;3.07;
62631;PMS5003;48703;51.248;-0.546;2022-10-18T14:20:45;3.99;3.13;
62631;PMS5003;48703;51.248;-0.546;2022-10-18T14:23:45;4.11;2.97;
62631;PMS5003;48703;51.248;-0.546;2022-10-18T14:26:47;3.17;2.36;
62631;PMS5003;48703;51.248;-0.546;2022-10-18T14:29:49;2.97;2.76;
62631;PMS5003;48703;51.248;-0.546;2022-10-18T14:32:50;1.86;1.64;
62631;PMS5003;48703;51.248;-0.546;2022-10-18T14:35:57;3.83;2.97;
62631;PMS5003;48703;51.248;-0.546;2022-10-18T14:38:54;3.91;3.14;
62631;PMS5003;48703;51.248;-0.546;2022-10-18T14:41:55;4.54;3.47;
62631;PMS5003;48703;51.248;-0.546;2022-10-18T14:44:56;3.53;2.74;
62631;PMS5003;48703;51.248;-0.546;2022-10-18T14:48:05;4.06;3.59;
62631;PMS5003;48703;51.248;-0.546;2022-10-18T14:50:59;3.11;3.11;
62631;PMS5003;48703;51.248;-0.546;2022-10-18T14:54:00;4.53;3.44;
62631;PMS5003;48703;51.248;-0.546;2022-10-18T14:57:02;4.03;3.69;
62631;PMS5003;48703;51.248;-0.546;2022-10-18T15:00:04;5.96;4.63;
62631;PMS5003;48703;51.248;-0.546;2022-10-18T15:03:05;4.67;4.03;
62631;PMS5003;48703;51.248;-0.546;2022-10-18T15:06:06;4.99;3.56;
62631;PMS5003;48703;51.248;-0.546;2022-10-18T15:09:08;4.30;3.70;
62631;PMS5003;48703;51.248;-0.546;2022-10-18T15:12:11;5.47;4.54;
62631;PMS5003;48703;51.248;-0.546;2022-10-18T15:15:13;4.33;3.26;
62631;PMS5003;48703;51.248;-0.546;2022-10-18T15:18:14;3.67;3.67;
62631;PMS5003;48703;51.248;-0.546;2022-10-18T15:21:19;5.34;3.57;
62631;PMS5003;48703;51.248;-0.546;2022-10-18T15:24:19;2.96;2.61;
62631;PMS5003;48703;51.248;-0.546;2022-10-18T15:27:18;4.70;4.36;
62631;PMS5003;48703;51.248;-0.546;2022-10-18T15:30:19;4.53;4.01;
62631;PMS5003;48703;51.248;-0.546;2022-10-18T15:33:21;3.30;2.66;
62631;PMS5003;48703;51.248;-0.546;2022-10-18T15:36:25;4.26;3.21;
62631;PMS5003;48703;51.248;-0.546;2022-10-18T15:39:24;4.24;3.54;
62631;PMS5003;48703;51.248;-0.546;2022-10-18T15:42:40;3.84;3.73;
62631;PMS5003;48703;51.248;-0.546;2022-10-18T15:45:28;4.80;2.96;
62631;PMS5003;48703;51.248;-0.546;2022-10-18T15:48:28;4.21;4.21;
62631;PMS5003;48703;51.248;-0.546;2022-10-18T15:51:32;6.46;4.96;
62631;PMS5003;48703;51.248;-0.546;2022-10-18T15:54:30;2.99;2.46;
62631;PMS5003;48703;51.248;-0.546;2022-10-18T15:57:31;5.09;4.73;
62631;PMS5003;48703;51.248;-0.546;2022-10-18T16:00:33;4.77;3.74;
62631;PMS5003;48703;51.248;-0.546;2022-10-18T16:03:34;3.51;3.33;
62631;PMS5003;48703;51.248;-0.546;2022-10-18T16:06:36;3.17;3.13;
62631;PMS5003;48703;51.248;-0.546;2022-10-18T16:09:37;3.83;3.47;
62631;PMS5003;48703;51.248;-0.546;2022-10-18T16:12:39;3.41;3.36;
62631;PMS5003;48703;51.248;-0.546;2022-10-18T16:15:40;4.80;4.54;
62631;PMS5003;48703;51.248;-0.546;2022-10-18T16:18:41;3.90;2.91;
62631;PMS5003;48703;51.248;-0.546;2022-10-18T16:21:43;4.40;3.73;
62631;PMS5003;48703;51.248;-0.546;2022-10-18T16:24:44;4.91;3.74;
62631;PMS5003;48703;51.248;-0.546;2022-10-18T16:27:46;5.07;3.36;
62631;PMS5003;48703;51.248;-0.546;2022-10-18T16:30:51;4.04;4.04;
62631;PMS5003;48703;51.248;-0.546;2022-10-18T16:33:49;5.53;4.40;
62631;PMS5003;48703;51.248;-0.546;2022-10-18T16:36:50;4.67;4.14;
62631;PMS5003;48703;51.248;-0.546;2022-10-18T16:39:52;4.50;3.41;
62631;PMS5003;48703;51.248;-0.546;2022-10-18T16:42:53;4.80;4.36;
62631;PMS5003;48703;51.248;-0.546;2022-10-18T16:45:55;5.04;4.61;
62631;PMS5003;48703;51.248;-0.546;2022-10-18T16:48:56;4.26;4.00;
62631;PMS5003;48703;51.248;-0.546;2022-10-18T16:51:58;4.10;4.01;
62631;PMS5003;48703;51.248;-0.546;2022-10-18T16:54:59;4.81;4.54;
62631;PMS5003;48703;51.248;-0.546;2022-10-18T16:58:01;5.07;5.01;
62631;PMS5003;48703;51.248;-0.546;2022-10-18T17:01:02;5.34;4.61;
62631;PMS5003;48703;51.248;-0.546;2022-10-18T17:04:04;6.86;5.13;
62631;PMS5003;48703;51.248;-0.546;2022-10-18T17:07:05;5.13;4.90;
62631;PMS5003;48703;51.248;-0.546;2022-10-18T17:10:07;5.90;4.81;
62631;PMS5003;48703;51.248;-0.546;2022-10-18T17:13:08;4.57;4.57;
62631;PMS5003;48703;51.248;-0.546;2022-10-18T17:16:14;6.57;5.90;
62631;PMS5003;48703;51.248;-0.546;2022-10-18T17:19:11;59.43;50.46;
62631;PMS5003;48703;51.248;-0.546;2022-10-18T17:22:12;47.54;43.83;
62631;PMS5003;48703;51.248;-0.546;2022-10-18T17:25:14;30.67;27.17;
62631;PMS5003;48703;51.248;-0.546;2022-10-18T17:28:16;11.03;9.17;
62631;PMS5003;48703;51.248;-0.546;2022-10-18T17:31:17;22.34;21.21;
62631;PMS5003;48703;51.248;-0.546;2022-10-18T17:34:19;17.70;16.71;
62631;PMS5003;48703;51.248;-0.546;2022-10-18T17:37:19;44.81;38.65;
62631;PMS5003;48703;51.248;-0.546;2022-10-18T17:40:20;19.74;18.07;
62631;PMS5003;48703;51.248;-0.546;2022-10-18T17:43:21;19.73;18.66;
62631;PMS5003;48703;51.248;-0.546;2022-10-18T17:46:23;17.20;15.81;
62631;PMS5003;48703;51.248;-0.546;2022-10-18T17:49:24;13.09;12.86;
62631;PMS5003;48703;51.248;-0.546;2022-10-18T17:52:25;10.91;9.99;
62631;PMS5003;48703;51.248;-0.546;2022-10-18T17:55:27;23.14;20.74;
62631;PMS5003;48703;51.248;-0.546;2022-10-18T17:58:29;11.80;11.40;
62631;PMS5003;48703;51.248;-0.546;2022-10-18T18:01:30;13.40;13.40;
62631;PMS5003;48703;51.248;-0.546;2022-10-18T18:04:31;17.99;17.69;
62631;PMS5003;48703;51.248;-0.546;2022-10-18T18:07:32;14.84;12.43;
62631;PMS5003;48703;51.248;-0.546;2022-10-18T18:10:34;8.10;7.26;
62631;PMS5003;48703;51.248;-0.546;2022-10-18T18:13:35;6.83;6.24;
62631;PMS5003;48703;51.248;-0.546;2022-10-18T18:16:37;13.74;12.64;
62631;PMS5003;48703;51.248;-0.546;2022-10-18T18:19:38;11.64;10.46;
62631;PMS5003;48703;51.248;-0.546;2022-10-18T18:22:39;10.70;10.51;
62631;PMS5003;48703;51.248;-0.546;2022-10-18T18:25:41;8.76;7.70;